sensor_id;sensor_type;location;lat;lon;timestamp;P1;durP1;ratioP1;P2;durP2;ratioP2
44862;SDS011;30597;49.628;10.850;2023-04-15T00:02:13;2.60;;;2.40;;
44862;SDS011;30597;49.628;10.850;2023-04-15T00:04:46;4.27;;;3.10;;
44862;SDS011;30597;49.628;10.850;2023-04-15T00:07:12;2.80;;;2.53;;
44862;SDS011;30597;49.628;10.850;2023-04-15T00:09:38;3.43;;;3.13;;
44862;SDS011;30597;49.628;10.850;2023-04-15T00:12:05;2.80;;;2.60;;
44862;SDS011;30597;49.628;10.850;2023-04-15T00:14:32;2.90;;;2.60;;
44862;SDS011;30597;49.628;10.850;2023-04-15T00:16:59;2.43;;;2.23;;
44862;SDS011;30597;49.628;10.850;2023-04-15T00:19:25;2.60;;;2.40;;
44862;SDS011;30597;49.628;10.850;2023-04-15T00:21:50;4.07;;;3.10;;
44862;SDS011;30597;49.628;10.850;2023-04-15T00:24:16;2.33;;;2.13;;
44862;SDS011;30597;49.628;10.850;2023-04-15T00:26:42;2.67;;;2.47;;
44862;SDS011;30597;49.628;10.850;2023-04-15T00:29:07;3.50;;;2.60;;
44862;SDS011;30597;49.628;10.850;2023-04-15T00:31:33;2.40;;;2.17;;
44862;SDS011;30597;49.628;10.850;2023-04-15T00:33:58;3.57;;;2.80;;
44862;SDS011;30597;49.628;10.850;2023-04-15T00:36:24;5.17;;;3.13;;
44862;SDS011;30597;49.628;10.850;2023-04-15T00:38:50;3.03;;;2.30;;
44862;SDS011;30597;49.628;10.850;2023-04-15T00:41:16;5.00;;;2.80;;
44862;SDS011;30597;49.628;10.850;2023-04-15T00:43:43;2.67;;;2.40;;
44862;SDS011;30597;49.628;10.850;2023-04-15T00:46:08;3.47;;;2.30;;
44862;SDS011;30597;49.628;10.850;2023-04-15T00:48:37;2.80;;;2.33;;
44862;SDS011;30597;49.628;10.850;2023-04-15T00:51:03;3.00;;;2.60;;
44862;SDS011;30597;49.628;10.850;2023-04-15T00:53:28;2.73;;;2.53;;
44862;SDS011;30597;49.628;10.850;2023-04-15T00:55:54;2.40;;;2.20;;
44862;SDS011;30597;49.628;10.850;2023-04-15T00:58:20;3.10;;;2.80;;
44862;SDS011;30597;49.628;10.850;2023-04-15T01:00:45;2.53;;;2.33;;
44862;SDS011;30597;49.628;10.850;2023-04-15T01:03:11;4.60;;;2.90;;
44862;SDS011;30597;49.628;10.850;2023-04-15T01:05:45;3.03;;;2.33;;
44862;SDS011;30597;49.628;10.850;2023-04-15T01:08:25;2.50;;;2.30;;
44862;SDS011;30597;49.628;10.850;2023-04-15T01:10:55;2.57;;;2.37;;
44862;SDS011;30597;49.628;10.850;2023-04-15T01:13:22;6.00;;;2.40;;
44862;SDS011;30597;49.628;10.850;2023-04-15T01:15:55;2.90;;;2.33;;
44862;SDS011;30597;49.628;10.850;2023-04-15T01:18:21;2.87;;;2.50;;
44862;SDS011;30597;49.628;10.850;2023-04-15T01:20:47;3.40;;;2.67;;
44862;SDS011;30597;49.628;10.850;2023-04-15T01:23:13;2.50;;;2.30;;
44862;SDS011;30597;49.628;10.850;2023-04-15T01:25:42;5.23;;;2.97;;
44862;SDS011;30597;49.628;10.850;2023-04-15T01:28:08;3.43;;;2.30;;
44862;SDS011;30597;49.628;10.850;2023-04-15T01:30:35;3.90;;;2.27;;
44862;SDS011;30597;49.628;10.850;2023-04-15T01:33:03;2.93;;;2.40;;
44862;SDS011;30597;49.628;10.850;2023-04-15T01:35:29;2.47;;;2.10;;
44862;SDS011;30597;49.628;10.850;2023-04-15T01:37:54;2.90;;;2.00;;
44862;SDS011;30597;49.628;10.850;2023-04-15T01:40:27;2.70;;;2.50;;
44862;SDS011;30597;49.628;10.850;2023-04-15T01:42:53;3.03;;;2.20;;
44862;SDS011;30597;49.628;10.850;2023-04-15T01:45:18;2.30;;;2.10;;
44862;SDS011;30597;49.628;10.850;2023-04-15T01:47:44;2.30;;;2.10;;
44862;SDS011;30597;49.628;10.850;2023-04-15T01:50:09;3.30;;;2.53;;
44862;SDS011;30597;49.628;10.850;2023-04-15T01:52:35;2.33;;;2.03;;
44862;SDS011;30597;49.628;10.850;2023-04-15T01:55:00;2.83;;;1.80;;
44862;SDS011;30597;49.628;10.850;2023-04-15T01:57:26;2.40;;;2.20;;
44862;SDS011;30597;49.628;10.850;2023-04-15T01:59:51;2.60;;;2.40;;
44862;SDS011;30597;49.628;10.850;2023-04-15T02:02:17;2.90;;;2.33;;
44862;SDS011;30597;49.628;10.850;2023-04-15T02:04:42;2.50;;;2.27;;
44862;SDS011;30597;49.628;10.850;2023-04-15T02:07:08;2.00;;;1.90;;
44862;SDS011;30597;49.628;10.850;2023-04-15T02:09:34;2.67;;;2.40;;
44862;SDS011;30597;49.628;10.850;2023-04-15T02:11:59;2.37;;;2.17;;
44862;SDS011;30597;49.628;10.850;2023-04-15T02:14:25;2.90;;;2.43;;
44862;SDS011;30597;49.628;10.850;2023-04-15T02:16:51;3.20;;;2.70;;
44862;SDS011;30597;49.628;10.850;2023-04-15T02:19:16;2.77;;;2.17;;
44862;SDS011;30597;49.628;10.850;2023-04-15T02:21:42;2.63;;;1.93;;
44862;SDS011;30597;49.628;10.850;2023-04-15T02:24:07;2.50;;;2.30;;
44862;SDS011;30597;49.628;10.850;2023-04-15T02:26:33;2.30;;;2.10;;
44862;SDS011;30597;49.628;10.850;2023-04-15T02:28:59;2.40;;;2.20;;
44862;SDS011;30597;49.628;10.850;2023-04-15T02:31:24;4.87;;;2.20;;
44862;SDS011;30597;49.628;10.850;2023-04-15T02:33:50;1.80;;;1.70;;
44862;SDS011;30597;49.628;10.850;2023-04-15T02:36:16;1.90;;;1.80;;
44862;SDS011;30597;49.628;10.850;2023-04-15T02:38:41;3.23;;;1.97;;
44862;SDS011;30597;49.628;10.850;2023-04-15T02:41:08;2.10;;;2.00;;
44862;SDS011;30597;49.628;10.850;2023-04-15T02:43:34;2.60;;;2.40;;
44862;SDS011;30597;49.628;10.850;2023-04-15T02:46:00;2.07;;;1.90;;
44862;SDS011;30597;49.628;10.850;2023-04-15T02:48:25;5.40;;;2.00;;
44862;SDS011;30597;49.628;10.850;2023-04-15T02:50:51;1.90;;;1.80;;
44862;SDS011;30597;49.628;10.850;2023-04-15T02:53:17;2.33;;;1.73;;
44862;SDS011;30597;49.628;10.850;2023-04-15T02:55:43;2.23;;;2.00;;
44862;SDS011;30597;49.628;10.850;2023-04-15T02:58:10;1.97;;;1.80;;
44862;SDS011;30597;49.628;10.850;2023-04-15T03:00:35;2.33;;;1.97;;
44862;SDS011;30597;49.628;10.850;2023-04-15T03:03:02;2.87;;;2.37;;
44862;SDS011;30597;49.628;10.850;2023-04-15T03:05:28;2.10;;;1.83;;
44862;SDS011;30597;49.628;10.850;2023-04-15T03:07:54;2.23;;;1.80;;
44862;SDS011;30597;49.628;10.850;2023-04-15T03:10:20;3.30;;;1.97;;
44862;SDS011;30597;49.628;10.850;2023-04-15T03:12:46;2.37;;;1.80;;
44862;SDS011;30597;49.628;10.850;2023-04-15T03:15:12;2.93;;;2.20;;
44862;SDS011;30597;49.628;10.850;2023-04-15T03:17:37;1.70;;;1.60;;
44862;SDS011;30597;49.628;10.850;2023-04-15T03:20:03;2.10;;;1.90;;
44862;SDS011;30597;49.628;10.850;2023-04-15T03:22:30;1.90;;;1.60;;
44862;SDS011;30597;49.628;10.850;2023-04-15T03:24:56;2.07;;;1.80;;
44862;SDS011;30597;49.628;10.850;2023-04-15T03:27:22;1.67;;;1.40;;
44862;SDS011;30597;49.628;10.850;2023-04-15T03:29:48;2.23;;;2.03;;
44862;SDS011;30597;49.628;10.850;2023-04-15T03:32:13;1.73;;;1.63;;
44862;SDS011;30597;49.628;10.850;2023-04-15T03:34:40;1.80;;;1.70;;
44862;SDS011;30597;49.628;10.850;2023-04-15T03:37:06;2.20;;;2.00;;
44862;SDS011;30597;49.628;10.850;2023-04-15T03:39:32;1.90;;;1.70;;
44862;SDS011;30597;49.628;10.850;2023-04-15T03:41:58;1.80;;;1.70;;
44862;SDS011;30597;49.628;10.850;2023-04-15T03:44:25;1.90;;;1.80;;
44862;SDS011;30597;49.628;10.850;2023-04-15T03:46:50;2.40;;;1.77;;
44862;SDS011;30597;49.628;10.850;2023-04-15T03:49:16;2.00;;;1.80;;
44862;SDS011;30597;49.628;10.850;2023-04-15T03:51:43;1.87;;;1.67;;
44862;SDS011;30597;49.628;10.850;2023-04-15T03:54:09;1.60;;;1.50;;
44862;SDS011;30597;49.628;10.850;2023-04-15T03:56:35;3.10;;;1.50;;
44862;SDS011;30597;49.628;10.850;2023-04-15T03:59:00;1.90;;;1.70;;
44862;SDS011;30597;49.628;10.850;2023-04-15T04:01:26;1.60;;;1.50;;
44862;SDS011;30597;49.628;10.850;2023-04-15T04:03:51;2.83;;;1.50;;
44862;SDS011;30597;49.628;10.850;2023-04-15T04:06:17;2.07;;;1.77;;
44862;SDS011;30597;49.628;10.850;2023-04-15T04:08:43;1.60;;;1.50;;
44862;SDS011;30597;49.628;10.850;2023-04-15T04:11:08;2.20;;;1.57;;
44862;SDS011;30597;49.628;10.850;2023-04-15T04:13:34;1.40;;;1.30;;
44862;SDS011;30597;49.628;10.850;2023-04-15T04:15:59;2.13;;;1.60;;
44862;SDS011;30597;49.628;10.850;2023-04-15T04:18:25;1.70;;;1.60;;
44862;SDS011;30597;49.628;10.850;2023-04-15T04:20:51;1.60;;;1.50;;
44862;SDS011;30597;49.628;10.850;2023-04-15T04:23:16;2.10;;;1.70;;
44862;SDS011;30597;49.628;10.850;2023-04-15T04:25:42;2.07;;;1.63;;
44862;SDS011;30597;49.628;10.850;2023-04-15T04:28:07;1.67;;;1.53;;
44862;SDS011;30597;49.628;10.850;2023-04-15T04:30:34;2.47;;;1.47;;
44862;SDS011;30597;49.628;10.850;2023-04-15T04:33:00;1.33;;;1.20;;
44862;SDS011;30597;49.628;10.850;2023-04-15T04:35:26;1.80;;;1.70;;
44862;SDS011;30597;49.628;10.850;2023-04-15T04:37:52;1.40;;;1.30;;
44862;SDS011;30597;49.628;10.850;2023-04-15T04:40:17;3.13;;;1.60;;
44862;SDS011;30597;49.628;10.850;2023-04-15T04:42:43;3.17;;;1.33;;
44862;SDS011;30597;49.628;10.850;2023-04-15T04:45:09;3.87;;;1.40;;
44862;SDS011;30597;49.628;10.850;2023-04-15T04:47:34;2.60;;;1.33;;
44862;SDS011;30597;49.628;10.850;2023-04-15T04:50:00;1.47;;;1.37;;
44862;SDS011;30597;49.628;10.850;2023-04-15T04:52:26;1.67;;;1.37;;
44862;SDS011;30597;49.628;10.850;2023-04-15T04:54:51;2.00;;;1.40;;
44862;SDS011;30597;49.628;10.850;2023-04-15T04:57:17;3.60;;;1.70;;
44862;SDS011;30597;49.628;10.850;2023-04-15T04:59:42;1.90;;;1.40;;
44862;SDS011;30597;49.628;10.850;2023-04-15T05:02:08;1.63;;;1.53;;
44862;SDS011;30597;49.628;10.850;2023-04-15T05:04:34;1.60;;;1.50;;
44862;SDS011;30597;49.628;10.850;2023-04-15T05:07:00;1.53;;;1.43;;
44862;SDS011;30597;49.628;10.850;2023-04-15T05:09:26;2.07;;;1.87;;
44862;SDS011;30597;49.628;10.850;2023-04-15T05:11:52;1.43;;;1.33;;
44862;SDS011;30597;49.628;10.850;2023-04-15T05:14:18;1.27;;;1.17;;
44862;SDS011;30597;49.628;10.850;2023-04-15T05:16:44;5.10;;;1.80;;
44862;SDS011;30597;49.628;10.850;2023-04-15T05:19:09;1.50;;;1.40;;
44862;SDS011;30597;49.628;10.850;2023-04-15T05:21:35;1.60;;;1.30;;
44862;SDS011;30597;49.628;10.850;2023-04-15T05:24:00;1.40;;;1.30;;
44862;SDS011;30597;49.628;10.850;2023-04-15T05:26:26;1.53;;;1.40;;
44862;SDS011;30597;49.628;10.850;2023-04-15T05:28:52;6.80;;;1.40;;
44862;SDS011;30597;49.628;10.850;2023-04-15T05:31:17;1.90;;;1.53;;
44862;SDS011;30597;49.628;10.850;2023-04-15T05:33:43;1.63;;;1.40;;
44862;SDS011;30597;49.628;10.850;2023-04-15T05:36:09;1.63;;;1.47;;
44862;SDS011;30597;49.628;10.850;2023-04-15T05:38:34;1.50;;;1.40;;
44862;SDS011;30597;49.628;10.850;2023-04-15T05:41:00;1.47;;;1.37;;
44862;SDS011;30597;49.628;10.850;2023-04-15T05:43:25;1.57;;;1.47;;
44862;SDS011;30597;49.628;10.850;2023-04-15T05:45:51;1.60;;;1.33;;
44862;SDS011;30597;49.628;10.850;2023-04-15T05:48:17;1.83;;;1.73;;
44862;SDS011;30597;49.628;10.850;2023-04-15T05:50:42;1.70;;;1.60;;
44862;SDS011;30597;49.628;10.850;2023-04-15T05:53:08;1.97;;;1.50;;
44862;SDS011;30597;49.628;10.850;2023-04-15T05:55:33;1.50;;;1.40;;
44862;SDS011;30597;49.628;10.850;2023-04-15T05:57:59;2.33;;;1.23;;
44862;SDS011;30597;49.628;10.850;2023-04-15T06:00:25;1.70;;;1.50;;
44862;SDS011;30597;49.628;10.850;2023-04-15T06:02:51;1.40;;;1.27;;
44862;SDS011;30597;49.628;10.850;2023-04-15T06:05:17;1.83;;;1.53;;
44862;SDS011;30597;49.628;10.850;2023-04-15T06:07:43;1.90;;;1.67;;
44862;SDS011;30597;49.628;10.850;2023-04-15T06:10:08;1.40;;;1.30;;
44862;SDS011;30597;49.628;10.850;2023-04-15T06:12:34;1.90;;;1.57;;
44862;SDS011;30597;49.628;10.850;2023-04-15T06:15:00;1.50;;;1.40;;
44862;SDS011;30597;49.628;10.850;2023-04-15T06:17:26;1.80;;;1.53;;
44862;SDS011;30597;49.628;10.850;2023-04-15T06:19:52;2.00;;;1.80;;
44862;SDS011;30597;49.628;10.850;2023-04-15T06:22:23;1.40;;;1.30;;
44862;SDS011;30597;49.628;10.850;2023-04-15T06:24:49;1.93;;;1.70;;
44862;SDS011;30597;49.628;10.850;2023-04-15T06:27:15;2.33;;;1.90;;
44862;SDS011;30597;49.628;10.850;2023-04-15T06:29:41;1.70;;;1.60;;
44862;SDS011;30597;49.628;10.850;2023-04-15T06:32:07;3.30;;;1.90;;
44862;SDS011;30597;49.628;10.850;2023-04-15T06:34:32;2.07;;;1.70;;
44862;SDS011;30597;49.628;10.850;2023-04-15T06:36:58;1.80;;;1.70;;
44862;SDS011;30597;49.628;10.850;2023-04-15T06:39:24;2.00;;;1.90;;
44862;SDS011;30597;49.628;10.850;2023-04-15T06:41:50;2.90;;;1.83;;
44862;SDS011;30597;49.628;10.850;2023-04-15T06:44:17;1.93;;;1.83;;
44862;SDS011;30597;49.628;10.850;2023-04-15T06:46:43;1.70;;;1.60;;
44862;SDS011;30597;49.628;10.850;2023-04-15T06:49:08;2.03;;;1.63;;
44862;SDS011;30597;49.628;10.850;2023-04-15T06:51:35;2.50;;;1.60;;
44862;SDS011;30597;49.628;10.850;2023-04-15T06:54:01;2.00;;;1.90;;
44862;SDS011;30597;49.628;10.850;2023-04-15T06:56:29;1.90;;;1.70;;
44862;SDS011;30597;49.628;10.850;2023-04-15T06:58:58;1.80;;;1.70;;
44862;SDS011;30597;49.628;10.850;2023-04-15T07:01:23;1.80;;;1.60;;
44862;SDS011;30597;49.628;10.850;2023-04-15T07:03:49;1.87;;;1.77;;
44862;SDS011;30597;49.628;10.850;2023-04-15T07:06:15;2.10;;;1.80;;
44862;SDS011;30597;49.628;10.850;2023-04-15T07:08:41;10.63;;;2.00;;
44862;SDS011;30597;49.628;10.850;2023-04-15T07:11:06;5.93;;;2.00;;
44862;SDS011;30597;49.628;10.850;2023-04-15T07:13:32;2.37;;;2.17;;
44862;SDS011;30597;49.628;10.850;2023-04-15T07:15:58;4.63;;;2.33;;
44862;SDS011;30597;49.628;10.850;2023-04-15T07:18:23;2.67;;;2.40;;
44862;SDS011;30597;49.628;10.850;2023-04-15T07:20:49;6.53;;;2.40;;
44862;SDS011;30597;49.628;10.850;2023-04-15T07:23:15;2.63;;;2.10;;
44862;SDS011;30597;49.628;10.850;2023-04-15T07:25:41;2.60;;;2.40;;
44862;SDS011;30597;49.628;10.850;2023-04-15T07:28:06;2.90;;;2.60;;
44862;SDS011;30597;49.628;10.850;2023-04-15T07:30:32;2.60;;;2.40;;
44862;SDS011;30597;49.628;10.850;2023-04-15T07:32:58;3.43;;;3.13;;
44862;SDS011;30597;49.628;10.850;2023-04-15T07:35:26;3.33;;;3.03;;
44862;SDS011;30597;49.628;10.850;2023-04-15T07:37:51;4.30;;;2.80;;
44862;SDS011;30597;49.628;10.850;2023-04-15T07:40:17;4.60;;;3.30;;
44862;SDS011;30597;49.628;10.850;2023-04-15T07:42:42;3.30;;;3.00;;
44862;SDS011;30597;49.628;10.850;2023-04-15T07:45:08;3.57;;;3.30;;
44862;SDS011;30597;49.628;10.850;2023-04-15T07:47:34;3.20;;;2.90;;
44862;SDS011;30597;49.628;10.850;2023-04-15T07:50:00;3.37;;;3.07;;
44862;SDS011;30597;49.628;10.850;2023-04-15T07:52:26;3.63;;;3.30;;
44862;SDS011;30597;49.628;10.850;2023-04-15T07:54:52;3.30;;;3.00;;
44862;SDS011;30597;49.628;10.850;2023-04-15T07:57:18;5.00;;;2.77;;
44862;SDS011;30597;49.628;10.850;2023-04-15T07:59:43;3.37;;;3.07;;
44862;SDS011;30597;49.628;10.850;2023-04-15T08:02:10;2.93;;;2.67;;
44862;SDS011;30597;49.628;10.850;2023-04-15T08:04:35;3.50;;;3.20;;
44862;SDS011;30597;49.628;10.850;2023-04-15T08:07:01;2.93;;;2.73;;
44862;SDS011;30597;49.628;10.850;2023-04-15T08:09:28;3.17;;;2.90;;
44862;SDS011;30597;49.628;10.850;2023-04-15T08:11:53;3.47;;;3.17;;
44862;SDS011;30597;49.628;10.850;2023-04-15T08:14:20;3.20;;;2.90;;
44862;SDS011;30597;49.628;10.850;2023-04-15T08:16:46;3.10;;;2.80;;
44862;SDS011;30597;49.628;10.850;2023-04-15T08:19:12;6.07;;;3.13;;
44862;SDS011;30597;49.628;10.850;2023-04-15T08:21:37;14.83;;;3.40;;
44862;SDS011;30597;49.628;10.850;2023-04-15T08:24:04;4.40;;;3.03;;
44862;SDS011;30597;49.628;10.850;2023-04-15T08:26:30;4.23;;;3.27;;
44862;SDS011;30597;49.628;10.850;2023-04-15T08:28:56;2.90;;;2.60;;
44862;SDS011;30597;49.628;10.850;2023-04-15T08:31:22;4.23;;;2.70;;
44862;SDS011;30597;49.628;10.850;2023-04-15T08:33:47;3.50;;;2.73;;
44862;SDS011;30597;49.628;10.850;2023-04-15T08:36:15;3.83;;;3.40;;
44862;SDS011;30597;49.628;10.850;2023-04-15T08:38:41;5.03;;;4.57;;
44862;SDS011;30597;49.628;10.850;2023-04-15T08:41:17;5.80;;;4.40;;
44862;SDS011;30597;49.628;10.850;2023-04-15T08:43:51;5.43;;;4.93;;
44862;SDS011;30597;49.628;10.850;2023-04-15T08:46:20;5.40;;;4.30;;
44862;SDS011;30597;49.628;10.850;2023-04-15T08:48:46;4.43;;;3.90;;
44862;SDS011;30597;49.628;10.850;2023-04-15T08:51:13;4.10;;;3.80;;
44862;SDS011;30597;49.628;10.850;2023-04-15T08:53:40;4.43;;;4.03;;
44862;SDS011;30597;49.628;10.850;2023-04-15T08:56:07;4.47;;;4.07;;
44862;SDS011;30597;49.628;10.850;2023-04-15T08:58:35;4.60;;;3.83;;
44862;SDS011;30597;49.628;10.850;2023-04-15T09:01:01;4.73;;;4.13;;
44862;SDS011;30597;49.628;10.850;2023-04-15T09:03:27;6.97;;;4.07;;
44862;SDS011;30597;49.628;10.850;2023-04-15T09:05:52;3.90;;;3.60;;
44862;SDS011;30597;49.628;10.850;2023-04-15T09:08:18;9.27;;;4.67;;
44862;SDS011;30597;49.628;10.850;2023-04-15T09:10:44;4.87;;;4.27;;
44862;SDS011;30597;49.628;10.850;2023-04-15T09:13:10;5.20;;;3.63;;
44862;SDS011;30597;49.628;10.850;2023-04-15T09:15:37;4.00;;;3.70;;
44862;SDS011;30597;49.628;10.850;2023-04-15T09:18:03;4.23;;;3.67;;
44862;SDS011;30597;49.628;10.850;2023-04-15T09:20:29;3.73;;;3.30;;
44862;SDS011;30597;49.628;10.850;2023-04-15T09:23:02;4.50;;;4.10;;
44862;SDS011;30597;49.628;10.850;2023-04-15T09:25:37;4.60;;;3.70;;
44862;SDS011;30597;49.628;10.850;2023-04-15T09:28:06;3.50;;;3.20;;
44862;SDS011;30597;49.628;10.850;2023-04-15T09:30:32;3.97;;;3.60;;
44862;SDS011;30597;49.628;10.850;2023-04-15T09:33:00;3.37;;;3.07;;
44862;SDS011;30597;49.628;10.850;2023-04-15T09:35:27;4.30;;;3.60;;
44862;SDS011;30597;49.628;10.850;2023-04-15T09:37:53;3.43;;;3.10;;
44862;SDS011;30597;49.628;10.850;2023-04-15T09:40:33;4.40;;;3.73;;
44862;SDS011;30597;49.628;10.850;2023-04-15T09:43:00;4.03;;;3.47;;
44862;SDS011;30597;49.628;10.850;2023-04-15T09:45:26;3.60;;;3.30;;
44862;SDS011;30597;49.628;10.850;2023-04-15T09:47:53;4.20;;;3.40;;
44862;SDS011;30597;49.628;10.850;2023-04-15T09:50:19;4.37;;;3.53;;
44862;SDS011;30597;49.628;10.850;2023-04-15T09:52:45;3.40;;;3.10;;
44862;SDS011;30597;49.628;10.850;2023-04-15T09:55:12;3.47;;;3.17;;
44862;SDS011;30597;49.628;10.850;2023-04-15T09:57:38;3.83;;;3.40;;
44862;SDS011;30597;49.628;10.850;2023-04-15T10:00:14;3.30;;;3.10;;
44862;SDS011;30597;49.628;10.850;2023-04-15T10:02:40;3.20;;;2.90;;
44862;SDS011;30597;49.628;10.850;2023-04-15T10:05:13;3.37;;;3.07;;
44862;SDS011;30597;49.628;10.850;2023-04-15T10:07:39;4.03;;;2.80;;
44862;SDS011;30597;49.628;10.850;2023-04-15T10:10:06;3.27;;;2.97;;
44862;SDS011;30597;49.628;10.850;2023-04-15T10:12:33;3.63;;;3.30;;
44862;SDS011;30597;49.628;10.850;2023-04-15T10:15:04;2.83;;;2.63;;
44862;SDS011;30597;49.628;10.850;2023-04-15T10:17:31;4.03;;;3.63;;
44862;SDS011;30597;49.628;10.850;2023-04-15T10:20:02;3.40;;;3.10;;
44862;SDS011;30597;49.628;10.850;2023-04-15T10:22:29;3.60;;;3.30;;
44862;SDS011;30597;49.628;10.850;2023-04-15T10:24:55;3.50;;;3.20;;
44862;SDS011;30597;49.628;10.850;2023-04-15T10:27:22;3.53;;;3.23;;
44862;SDS011;30597;49.628;10.850;2023-04-15T10:29:49;4.07;;;3.30;;
44862;SDS011;30597;49.628;10.850;2023-04-15T10:32:16;3.37;;;3.07;;
44862;SDS011;30597;49.628;10.850;2023-04-15T10:34:46;3.53;;;3.23;;
44862;SDS011;30597;49.628;10.850;2023-04-15T10:37:19;3.03;;;2.70;;
44862;SDS011;30597;49.628;10.850;2023-04-15T10:40:12;3.77;;;3.47;;
44862;SDS011;30597;49.628;10.850;2023-04-15T10:42:55;3.20;;;2.93;;
44862;SDS011;30597;49.628;10.850;2023-04-15T10:45:24;3.13;;;2.83;;
44862;SDS011;30597;49.628;10.850;2023-04-15T10:47:54;3.67;;;3.37;;
44862;SDS011;30597;49.628;10.850;2023-04-15T10:50:21;3.63;;;3.30;;
44862;SDS011;30597;49.628;10.850;2023-04-15T10:52:49;3.30;;;3.00;;
44862;SDS011;30597;49.628;10.850;2023-04-15T10:55:20;2.87;;;2.67;;
44862;SDS011;30597;49.628;10.850;2023-04-15T10:57:51;3.23;;;2.93;;
44862;SDS011;30597;49.628;10.850;2023-04-15T11:00:18;3.20;;;2.80;;
44862;SDS011;30597;49.628;10.850;2023-04-15T11:02:56;3.90;;;3.20;;
44862;SDS011;30597;49.628;10.850;2023-04-15T11:06:07;2.80;;;2.60;;
44862;SDS011;30597;49.628;10.850;2023-04-15T11:08:14;4.00;;;2.67;;
44862;SDS011;30597;49.628;10.850;2023-04-15T11:15:36;3.03;;;2.77;;
44862;SDS011;30597;49.628;10.850;2023-04-15T11:20:40;2.93;;;2.63;;
44862;SDS011;30597;49.628;10.850;2023-04-15T11:23:11;2.63;;;2.33;;
44862;SDS011;30597;49.628;10.850;2023-04-15T11:25:37;3.03;;;2.80;;
44862;SDS011;30597;49.628;10.850;2023-04-15T11:28:03;2.70;;;2.50;;
44862;SDS011;30597;49.628;10.850;2023-04-15T11:30:30;3.03;;;2.83;;
44862;SDS011;30597;49.628;10.850;2023-04-15T11:33:01;3.83;;;2.67;;
44862;SDS011;30597;49.628;10.850;2023-04-15T11:35:30;3.50;;;2.73;;
44862;SDS011;30597;49.628;10.850;2023-04-15T11:37:56;3.20;;;2.60;;
44862;SDS011;30597;49.628;10.850;2023-04-15T11:40:23;2.53;;;2.40;;
44862;SDS011;30597;49.628;10.850;2023-04-15T11:45:52;3.03;;;2.70;;
44862;SDS011;30597;49.628;10.850;2023-04-15T11:48:24;2.30;;;2.10;;
44862;SDS011;30597;49.628;10.850;2023-04-15T11:50:55;3.30;;;3.00;;
44862;SDS011;30597;49.628;10.850;2023-04-15T11:53:35;2.97;;;2.60;;
44862;SDS011;30597;49.628;10.850;2023-04-15T11:56:02;4.10;;;2.70;;
44862;SDS011;30597;49.628;10.850;2023-04-15T11:58:28;2.90;;;2.17;;
44862;SDS011;30597;49.628;10.850;2023-04-15T12:00:57;3.07;;;2.77;;
44862;SDS011;30597;49.628;10.850;2023-04-15T12:03:24;2.37;;;2.17;;
44862;SDS011;30597;49.628;10.850;2023-04-15T12:06:04;2.93;;;2.50;;
44862;SDS011;30597;49.628;10.850;2023-04-15T12:11:18;2.60;;;2.40;;
44862;SDS011;30597;49.628;10.850;2023-04-15T12:14:12;2.47;;;2.17;;
44862;SDS011;30597;49.628;10.850;2023-04-15T12:16:39;3.63;;;2.43;;
44862;SDS011;30597;49.628;10.850;2023-04-15T12:19:37;3.13;;;2.10;;
44862;SDS011;30597;49.628;10.850;2023-04-15T12:22:12;3.43;;;1.90;;
44862;SDS011;30597;49.628;10.850;2023-04-15T12:24:40;2.20;;;2.00;;
44862;SDS011;30597;49.628;10.850;2023-04-15T12:27:12;1.80;;;1.70;;
44862;SDS011;30597;49.628;10.850;2023-04-15T12:29:39;2.47;;;2.20;;
44862;SDS011;30597;49.628;10.850;2023-04-15T12:32:09;2.40;;;2.20;;
44862;SDS011;30597;49.628;10.850;2023-04-15T12:34:49;2.80;;;2.17;;
44862;SDS011;30597;49.628;10.850;2023-04-15T12:37:16;2.50;;;2.30;;
44862;SDS011;30597;49.628;10.850;2023-04-15T12:39:42;2.17;;;1.70;;
44862;SDS011;30597;49.628;10.850;2023-04-15T12:42:10;2.40;;;2.00;;
44862;SDS011;30597;49.628;10.850;2023-04-15T12:44:36;2.07;;;1.93;;
44862;SDS011;30597;49.628;10.850;2023-04-15T12:47:03;2.73;;;1.90;;
44862;SDS011;30597;49.628;10.850;2023-04-15T12:49:29;2.33;;;1.87;;
44862;SDS011;30597;49.628;10.850;2023-04-15T12:51:56;1.67;;;1.50;;
44862;SDS011;30597;49.628;10.850;2023-04-15T12:54:26;1.93;;;1.60;;
44862;SDS011;30597;49.628;10.850;2023-04-15T12:56:53;2.03;;;1.80;;
44862;SDS011;30597;49.628;10.850;2023-04-15T12:59:19;3.30;;;2.73;;
44862;SDS011;30597;49.628;10.850;2023-04-15T13:01:45;1.90;;;1.70;;
44862;SDS011;30597;49.628;10.850;2023-04-15T13:04:12;1.47;;;1.37;;
44862;SDS011;30597;49.628;10.850;2023-04-15T13:06:38;1.70;;;1.60;;
44862;SDS011;30597;49.628;10.850;2023-04-15T13:09:04;2.60;;;1.73;;
44862;SDS011;30597;49.628;10.850;2023-04-15T13:11:30;1.43;;;1.33;;
44862;SDS011;30597;49.628;10.850;2023-04-15T13:13:57;1.50;;;1.40;;
44862;SDS011;30597;49.628;10.850;2023-04-15T13:16:30;1.80;;;1.70;;
44862;SDS011;30597;49.628;10.850;2023-04-15T13:19:00;1.37;;;1.27;;
44862;SDS011;30597;49.628;10.850;2023-04-15T13:21:26;1.67;;;1.50;;
44862;SDS011;30597;49.628;10.850;2023-04-15T13:23:52;2.43;;;1.67;;
44862;SDS011;30597;49.628;10.850;2023-04-15T13:26:18;1.40;;;1.30;;
44862;SDS011;30597;49.628;10.850;2023-04-15T13:28:44;2.00;;;1.37;;
44862;SDS011;30597;49.628;10.850;2023-04-15T13:31:10;2.10;;;1.33;;
44862;SDS011;30597;49.628;10.850;2023-04-15T13:33:35;1.70;;;1.60;;
44862;SDS011;30597;49.628;10.850;2023-04-15T13:36:01;1.40;;;1.30;;
44862;SDS011;30597;49.628;10.850;2023-04-15T13:38:26;2.00;;;1.80;;
44862;SDS011;30597;49.628;10.850;2023-04-15T13:40:52;1.73;;;1.60;;
44862;SDS011;30597;49.628;10.850;2023-04-15T13:43:18;1.60;;;1.50;;
44862;SDS011;30597;49.628;10.850;2023-04-15T13:45:43;1.63;;;1.40;;
44862;SDS011;30597;49.628;10.850;2023-04-15T13:48:10;3.00;;;1.60;;
44862;SDS011;30597;49.628;10.850;2023-04-15T13:50:35;1.50;;;1.40;;
44862;SDS011;30597;49.628;10.850;2023-04-15T13:53:01;1.40;;;1.30;;
44862;SDS011;30597;49.628;10.850;2023-04-15T13:55:26;1.77;;;1.60;;
44862;SDS011;30597;49.628;10.850;2023-04-15T13:57:52;3.13;;;1.50;;
44862;SDS011;30597;49.628;10.850;2023-04-15T14:00:18;2.17;;;1.87;;
44862;SDS011;30597;49.628;10.850;2023-04-15T14:02:43;1.83;;;1.57;;
44862;SDS011;30597;49.628;10.850;2023-04-15T14:05:09;1.93;;;1.40;;
44862;SDS011;30597;49.628;10.850;2023-04-15T14:07:35;1.93;;;1.60;;
44862;SDS011;30597;49.628;10.850;2023-04-15T14:10:01;1.43;;;1.33;;
44862;SDS011;30597;49.628;10.850;2023-04-15T14:12:27;1.23;;;1.13;;
44862;SDS011;30597;49.628;10.850;2023-04-15T14:14:52;1.90;;;1.27;;
44862;SDS011;30597;49.628;10.850;2023-04-15T14:17:18;1.60;;;1.50;;
44862;SDS011;30597;49.628;10.850;2023-04-15T14:19:44;1.90;;;1.50;;
44862;SDS011;30597;49.628;10.850;2023-04-15T14:22:09;1.37;;;1.27;;
44862;SDS011;30597;49.628;10.850;2023-04-15T14:24:35;1.27;;;1.17;;
44862;SDS011;30597;49.628;10.850;2023-04-15T14:27:00;1.57;;;1.47;;
44862;SDS011;30597;49.628;10.850;2023-04-15T14:29:26;1.33;;;1.23;;
44862;SDS011;30597;49.628;10.850;2023-04-15T14:31:52;1.30;;;1.10;;
44862;SDS011;30597;49.628;10.850;2023-04-15T14:34:18;1.40;;;1.27;;
44862;SDS011;30597;49.628;10.850;2023-04-15T14:36:46;1.40;;;1.30;;
44862;SDS011;30597;49.628;10.850;2023-04-15T14:39:12;1.30;;;1.20;;
44862;SDS011;30597;49.628;10.850;2023-04-15T14:41:38;1.30;;;1.20;;
44862;SDS011;30597;49.628;10.850;2023-04-15T14:44:03;1.53;;;1.43;;
44862;SDS011;30597;49.628;10.850;2023-04-15T14:46:29;1.30;;;1.20;;